Time;durP1;ratioP1;P1;durP2;ratioP2;P2;SDS_P1;SDS_P2;PMS_P1;PMS_P2;Temp;Humidity;BMP_temperature;BMP_pressure;BME280_temperature;BME280_humidity;BME280_pressure;Samples;Min_cycle;Max_cycle;Signal;HPM_P1;HPM_P2
2022/07/06 00:00:05;;;;;;;3.92;1.70;;;17.60;58.40;;;;;;5012307;28;20364;-61
2022/07/06 00:02:31;;;;;;;3.92;1.50;;;17.60;58.50;;;;;;5010832;28;20316;-61
2022/07/06 00:04:57;;;;;;;3.92;1.52;;;17.60;58.60;;;;;;5009062;28;20037;-61
2022/07/06 00:07:23;;;;;;;4.40;1.40;;;17.60;58.70;;;;;;5007118;28;20026;-60
2022/07/06 00:09:49;;;;;;;3.50;1.40;;;17.50;58.80;;;;;;5020470;28;20042;-61
2022/07/06 00:12:15;;;;;;;5.15;1.65;;;17.60;59.00;;;;;;5011120;28;20080;-61
2022/07/06 00:14:40;;;;;;;4.13;1.50;;;17.50;59.00;;;;;;5012243;28;20024;-61
2022/07/06 00:17:06;;;;;;;3.72;1.45;;;17.50;59.10;;;;;;5013274;28;20030;-61
2022/07/06 00:19:31;;;;;;;8.18;1.67;;;17.50;59.10;;;;;;5009948;28;20109;-61
2022/07/06 00:21:57;;;;;;;3.97;1.25;;;17.50;59.20;;;;;;5014661;28;20048;-61
2022/07/06 00:24:23;;;;;;;4.95;1.40;;;17.50;59.20;;;;;;5010866;28;20481;-61
2022/07/06 00:26:48;;;;;;;5.80;1.65;;;17.50;59.20;;;;;;5013314;28;20305;-61
2022/07/06 00:29:14;;;;;;;3.25;1.30;;;17.40;59.20;;;;;;5004555;28;20026;-61
2022/07/06 00:31:39;;;;;;;4.07;1.40;;;17.40;59.30;;;;;;5014319;28;20022;-60
2022/07/06 00:34:06;;;;;;;5.35;1.40;;;17.40;59.40;;;;;;5016506;28;20018;-61
2022/07/06 00:36:32;;;;;;;4.65;1.48;;;17.40;59.40;;;;;;5009868;28;20034;-61
2022/07/06 00:38:57;;;;;;;4.38;1.30;;;17.40;59.40;;;;;;5007932;28;20053;-61
2022/07/06 00:41:24;;;;;;;5.18;1.52;;;17.40;59.50;;;;;;5012834;28;20026;-61
2022/07/06 00:43:55;;;;;;;3.78;1.35;;;17.40;59.60;;;;;;5011256;28;20100;-61
2022/07/06 00:46:32;;;;;;;6.03;1.83;;;17.40;59.70;;;;;;5011576;28;20022;-61
2022/07/06 00:48:58;;;;;;;3.90;1.30;;;17.40;59.80;;;;;;5010042;28;20477;-60
2022/07/06 00:51:29;;;;;;;5.22;1.65;;;17.30;59.90;;;;;;5012445;28;20362;-61
2022/07/06 00:53:57;;;;;;;;;;;17.30;60.10;;;;;;5011099;28;20112;-61
2022/07/06 00:56:23;;;;;;;4.05;1.35;;;17.30;60.00;;;;;;5011681;28;20291;-61
2022/07/06 00:58:49;;;;;;;4.00;1.27;;;17.20;60.20;;;;;;5008217;28;20112;-60
2022/07/06 01:01:14;;;;;;;4.85;1.27;;;17.20;60.30;;;;;;5009676;28;20109;-65
2022/07/06 01:03:40;;;;;;;3.17;1.35;;;17.20;60.50;;;;;;5011560;28;20328;-61
2022/07/06 01:06:05;;;;;;;3.13;1.38;;;17.20;61.30;;;;;;5011739;28;20033;-61
2022/07/06 01:08:32;;;;;;;3.53;1.55;;;17.20;60.70;;;;;;5009100;28;20036;-61
2022/07/06 01:10:58;;;;;;;3.80;1.40;;;17.20;60.80;;;;;;4995402;28;20045;-61
2022/07/06 01:13:25;;;;;;;3.15;1.23;;;17.20;61.00;;;;;;5012506;28;20033;-61
2022/07/06 01:15:51;;;;;;;4.32;1.42;;;17.10;61.10;;;;;;5010315;28;20383;-61
2022/07/06 01:18:17;;;;;;;7.53;1.80;;;17.10;61.10;;;;;;5007761;28;20030;-60
2022/07/06 01:20:42;;;;;;;4.88;1.40;;;17.10;61.20;;;;;;5009591;28;20060;-61
2022/07/06 01:23:08;;;;;;;6.13;1.67;;;17.10;61.30;;;;;;5010237;28;20022;-60
2022/07/06 01:25:34;;;;;;;4.32;1.30;;;17.10;61.40;;;;;;5010605;28;20025;-60
2022/07/06 01:28:01;;;;;;;4.13;1.35;;;17.00;61.40;;;;;;5009548;28;20470;-61
2022/07/06 01:30:26;;;;;;;5.25;1.45;;;17.00;61.60;;;;;;5010309;28;20033;-61
2022/07/06 01:32:52;;;;;;;4.53;1.40;;;17.00;61.70;;;;;;5015362;28;20033;-61
2022/07/06 01:35:18;;;;;;;4.78;1.58;;;17.00;61.90;;;;;;5028274;28;20042;-61
2022/07/06 01:37:44;;;;;;;3.13;1.35;;;16.90;62.00;;;;;;5030728;28;20451;-60
2022/07/06 01:40:11;;;;;;;5.07;1.50;;;16.90;62.10;;;;;;5020885;28;20025;-61
2022/07/06 01:42:37;;;;;;;5.22;1.80;;;16.90;62.30;;;;;;5036691;28;20470;-60
2022/07/06 01:45:04;;;;;;;3.75;1.50;;;16.90;62.40;;;;;;5022560;28;20454;-60
2022/07/06 01:47:30;;;;;;;4.70;1.90;;;16.90;62.60;;;;;;5025725;28;20054;-61
2022/07/06 01:49:59;;;;;;;3.92;1.42;;;16.90;62.60;;;;;;5018911;28;20033;-61
2022/07/06 01:52:26;;;;;;;3.92;1.55;;;16.80;62.70;;;;;;5027160;28;20032;-60
2022/07/06 01:54:52;;;;;;;4.95;1.42;;;16.80;62.80;;;;;;5029784;28;20021;-61
2022/07/06 01:57:17;;;;;;;4.55;1.40;;;16.80;62.90;;;;;;5028737;28;20350;-60
2022/07/06 01:59:43;;;;;;;5.28;1.52;;;16.80;63.00;;;;;;5027121;28;20032;-61
2022/07/06 02:02:09;;;;;;;5.55;1.65;;;16.80;63.10;;;;;;5029986;28;20057;-61
2022/07/06 02:04:35;;;;;;;3.78;1.40;;;16.80;63.30;;;;;;5022722;28;20172;-61
2022/07/06 02:07:01;;;;;;;4.38;1.35;;;16.70;63.30;;;;;;5009670;28;20028;-60
2022/07/06 02:09:27;;;;;;;6.35;1.70;;;16.70;63.40;;;;;;5023583;28;20497;-61
2022/07/06 02:11:53;;;;;;;5.45;1.30;;;16.70;63.50;;;;;;5047196;28;20033;-61
2022/07/06 02:14:19;;;;;;;4.97;1.33;;;16.70;63.50;;;;;;5020159;28;20022;-61
2022/07/06 02:16:46;;;;;;;5.10;1.50;;;16.70;63.50;;;;;;5014689;28;20033;-61
2022/07/06 02:19:16;;;;;;;5.47;1.48;;;16.70;63.60;;;;;;5014486;28;20351;-61
2022/07/06 02:21:42;;;;;;;3.40;1.38;;;16.70;63.60;;;;;;5040612;28;20025;-61
2022/07/06 02:24:07;;;;;;;4.60;1.50;;;16.70;63.70;;;;;;5021344;28;20438;-61
2022/07/06 02:26:33;;;;;;;6.88;1.60;;;16.60;63.60;;;;;;5014316;28;20030;-61
2022/07/06 02:28:59;;;;;;;5.70;1.75;;;16.70;63.60;;;;;;5013983;28;20130;-60
2022/07/06 02:31:24;;;;;;;6.85;1.52;;;16.70;63.50;;;;;;5009348;28;20026;-60
2022/07/06 02:33:50;;;;;;;3.08;1.10;;;16.70;63.60;;;;;;5016181;28;20022;-62
2022/07/06 02:36:16;;;;;;;3.40;1.27;;;16.70;63.60;;;;;;5010244;28;20040;-60
2022/07/06 02:38:42;;;;;;;5.05;1.60;;;16.70;63.60;;;;;;5013085;28;20030;-60
2022/07/06 02:41:08;;;;;;;5.18;1.73;;;16.60;63.50;;;;;;5015675;28;20076;-61
2022/07/06 02:43:34;;;;;;;5.43;1.48;;;16.60;63.60;;;;;;5015895;28;20470;-61
2022/07/06 02:45:59;;;;;;;4.25;1.38;;;16.60;63.60;;;;;;5029647;28;20061;-60
2022/07/06 02:48:26;;;;;;;5.30;1.65;;;16.60;63.70;;;;;;5026435;28;20059;-61
2022/07/06 02:50:52;;;;;;;3.13;1.20;;;16.60;63.70;;;;;;5014069;28;20116;-61
2022/07/06 02:53:19;;;;;;;2.60;1.23;;;16.60;64.40;;;;;;5028231;28;20029;-60
2022/07/06 02:55:47;;;;;;;3.35;1.45;;;16.60;63.80;;;;;;5029603;28;20033;-61
2022/07/06 02:58:13;;;;;;;3.58;1.20;;;16.60;63.90;;;;;;5013923;28;20421;-60
2022/07/06 03:00:38;;;;;;;4.03;1.40;;;16.50;63.90;;;;;;5013489;28;20066;-61
2022/07/06 03:03:05;;;;;;;6.53;1.90;;;16.50;63.90;;;;;;5013843;28;20022;-61
2022/07/06 03:05:31;;;;;;;3.92;1.42;;;16.50;64.00;;;;;;5014137;28;20030;-61
2022/07/06 03:07:58;;;;;;;5.22;1.33;;;16.50;64.10;;;;;;5013658;28;20025;-60
2022/07/06 03:10:25;;;;;;;4.70;1.38;;;16.50;64.20;;;;;;5013500;28;20042;-60
2022/07/06 03:12:50;;;;;;;4.60;1.38;;;16.40;64.20;;;;;;5013803;28;20038;-61
2022/07/06 03:15:16;;;;;;;5.43;1.45;;;16.40;64.30;;;;;;5014722;28;20037;-60
2022/07/06 03:17:44;;;;;;;5.18;1.48;;;16.40;64.30;;;;;;5012598;28;20025;-60
2022/07/06 03:20:11;;;;;;;5.65;1.70;;;16.40;64.40;;;;;;4998080;28;20033;-60
2022/07/06 03:22:37;;;;;;;4.00;1.58;;;16.40;64.40;;;;;;5013080;28;20465;-60
2022/07/06 03:25:04;;;;;;;3.15;1.30;;;16.40;64.50;;;;;;5015714;28;20062;-60
2022/07/06 03:27:31;;;;;;;4.60;1.70;;;16.40;64.60;;;;;;4995453;28;20026;-61
2022/07/06 03:29:57;;;;;;;4.93;1.33;;;16.40;64.60;;;;;;5003855;28;20033;-60
2022/07/06 03:32:23;;;;;;;4.97;1.83;;;16.40;64.60;;;;;;5012823;28;20026;-61
2022/07/06 03:34:49;;;;;;;4.82;1.42;;;16.40;64.70;;;;;;5014193;28;20021;-61
2022/07/06 03:37:15;;;;;;;3.17;1.27;;;16.40;64.70;;;;;;5003933;28;20492;-61
2022/07/06 03:39:41;;;;;;;5.68;1.65;;;16.40;64.70;;;;;;5016195;28;20018;-61
2022/07/06 03:42:08;;;;;;;3.55;1.35;;;16.50;64.80;;;;;;5025462;28;20030;-61
2022/07/06 03:44:34;;;;;;;5.43;1.65;;;16.40;64.70;;;;;;5017714;28;20161;-61
2022/07/06 03:47:00;;;;;;;5.10;1.65;;;16.50;64.70;;;;;;5003281;28;20030;-61
2022/07/06 03:49:27;;;;;;;3.08;1.30;;;16.50;64.70;;;;;;5027835;28;20037;-61
2022/07/06 03:51:54;;;;;;;2.67;1.05;;;16.50;64.60;;;;;;5015032;28;20099;-61
2022/07/06 03:54:21;;;;;;;4.22;1.48;;;16.60;64.60;;;;;;5015962;28;20030;-61
2022/07/06 03:56:47;;;;;;;2.45;1.05;;;16.50;64.50;;;;;;5006727;28;20025;-60
2022/07/06 03:59:14;;;;;;;3.17;1.40;;;16.60;64.50;;;;;;5012957;28;20030;-60
2022/07/06 04:01:41;;;;;;;3.30;1.33;;;16.60;64.50;;;;;;5026471;28;20351;-60
2022/07/06 04:04:08;;;;;;;5.88;1.48;;;16.60;64.40;;;;;;5013876;28;20021;-61
2022/07/06 04:06:38;;;;;;;4.60;1.23;;;16.60;64.40;;;;;;5001374;28;20026;-61
2022/07/06 04:09:04;;;;;;;3.92;1.55;;;16.70;64.50;;;;;;5017903;28;20082;-61
2022/07/06 04:11:30;;;;;;;5.38;1.67;;;16.70;64.40;;;;;;5012456;28;20521;-61
2022/07/06 04:13:56;;;;;;;5.97;1.45;;;16.70;64.40;;;;;;5019653;28;20359;-60
2022/07/06 04:16:23;;;;;;;6.82;1.63;;;16.70;64.50;;;;;;5010457;28;20482;-60
2022/07/06 04:18:49;;;;;;;4.15;1.70;;;16.80;64.60;;;;;;5014433;28;20475;-60
2022/07/06 04:21:15;;;;;;;4.07;1.63;;;16.80;64.70;;;;;;5029543;28;20062;-60
2022/07/06 04:23:40;;;;;;;4.47;1.40;;;16.70;64.70;;;;;;5025739;28;20357;-61
2022/07/06 04:26:08;;;;;;;3.63;1.50;;;16.70;64.70;;;;;;5033376;28;20362;-60
2022/07/06 04:28:36;;;;;;;3.10;1.23;;;16.70;64.90;;;;;;5013751;28;20018;-60
2022/07/06 04:31:02;;;;;;;3.33;1.38;;;16.80;64.90;;;;;;5011561;28;20319;-64
2022/07/06 04:33:28;;;;;;;4.85;1.52;;;16.80;65.00;;;;;;5027224;28;20041;-64
2022/07/06 04:35:54;;;;;;;6.07;1.65;;;16.80;65.00;;;;;;5011618;28;20057;-60
2022/07/06 04:38:24;;;;;;;4.40;1.60;;;16.80;65.00;;;;;;5018087;28;20053;-60
2022/07/06 04:40:52;;;;;;;5.00;1.60;;;16.80;64.90;;;;;;5020173;28;20068;-60
2022/07/06 04:43:19;;;;;;;4.15;1.40;;;16.80;65.00;;;;;;4996509;28;20033;-61
2022/07/06 04:45:45;;;;;;;4.65;1.50;;;16.80;65.00;;;;;;5013294;28;20347;-60
2022/07/06 04:48:10;;;;;;;3.45;1.35;;;16.90;65.00;;;;;;5029933;28;20034;-60
2022/07/06 04:50:36;;;;;;;6.57;1.52;;;16.90;65.00;;;;;;5013519;28;20014;-60
2022/07/06 04:53:04;;;;;;;4.55;1.52;;;16.90;64.90;;;;;;4997024;28;20029;-60
2022/07/06 04:55:32;;;;;;;5.85;1.80;;;16.90;64.90;;;;;;5030016;28;20037;-60
2022/07/06 04:57:58;;;;;;;3.05;1.30;;;16.90;64.80;;;;;;5029021;28;20030;-60
2022/07/06 05:00:24;;;;;;;6.53;1.55;;;17.00;64.80;;;;;;5030022;28;20036;-60
2022/07/06 05:02:50;;;;;;;4.68;1.50;;;17.00;64.70;;;;;;5027283;28;20109;-61
2022/07/06 05:05:17;;;;;;;5.07;1.48;;;17.00;64.70;;;;;;5012738;28;20030;-60
2022/07/06 05:07:43;;;;;;;4.72;1.30;;;17.10;64.70;;;;;;5010997;28;20040;-60
2022/07/06 05:10:11;;;;;;;4.40;1.50;;;17.20;64.60;;;;;;5029133;28;20108;-60
2022/07/06 05:12:38;;;;;;;4.05;1.40;;;17.20;64.40;;;;;;5014720;28;20350;-60
2022/07/06 05:15:05;;;;;;;4.28;1.42;;;17.30;64.30;;;;;;5031394;28;20037;-60
2022/07/06 05:17:31;;;;;;;3.58;1.40;;;17.60;63.80;;;;;;5016323;28;20029;-61
2022/07/06 05:19:59;;;;;;;2.17;0.95;;;18.30;61.90;;;;;;5017006;28;20030;-60
2022/07/06 05:22:25;;;;;;;3.05;1.23;;;18.40;61.20;;;;;;5014596;28;20018;-60
2022/07/06 05:24:52;;;;;;;4.30;1.50;;;18.30;61.50;;;;;;5015901;28;20502;-61
2022/07/06 05:27:18;;;;;;;3.28;1.10;;;18.10;62.10;;;;;;5031385;28;20122;-61
2022/07/06 05:29:45;;;;;;;4.43;1.33;;;17.90;62.50;;;;;;5003462;28;20525;-60
2022/07/06 05:32:12;;;;;;;4.43;1.33;;;17.80;62.80;;;;;;5022615;28;20477;-60
2022/07/06 05:34:38;;;;;;;4.90;1.27;;;17.80;63.10;;;;;;5014933;28;20069;-60
2022/07/06 05:37:04;;;;;;;4.80;1.38;;;17.80;63.30;;;;;;5012742;28;20022;-60
2022/07/06 05:39:30;;;;;;;3.90;1.30;;;17.80;63.40;;;;;;4999352;28;20092;-61
2022/07/06 05:41:56;;;;;;;4.28;1.50;;;17.80;63.40;;;;;;5016722;28;20030;-61
2022/07/06 05:44:21;;;;;;;3.80;1.25;;;17.90;63.40;;;;;;4995990;28;20057;-61
2022/07/06 05:46:47;;;;;;;3.85;1.60;;;17.90;63.50;;;;;;4999146;28;20029;-61
2022/07/06 05:51:57;;;;;;;3.88;1.20;;;17.90;63.60;;;;;;5016633;28;20033;-61
2022/07/06 05:54:23;;;;;;;4.32;1.50;;;17.90;63.70;;;;;;5014478;28;20532;-61
2022/07/06 05:56:48;;;;;;;4.75;1.63;;;17.90;63.80;;;;;;5016864;28;20045;-60
2022/07/06 05:59:15;;;;;;;5.80;1.42;;;17.90;63.80;;;;;;5015365;28;20045;-60
2022/07/06 06:01:40;;;;;;;4.68;1.17;;;18.00;63.80;;;;;;5016175;28;20452;-61
2022/07/06 06:04:11;;;;;;;4.82;1.20;;;18.10;63.50;;;;;;5012273;28;20076;-62
2022/07/06 06:06:37;;;;;;;2.08;0.90;;;18.20;63.00;;;;;;5015564;28;20022;-62
2022/07/06 06:09:03;;;;;;;4.25;1.20;;;18.40;63.30;;;;;;5015152;28;20053;-62
2022/07/06 06:11:29;;;;;;;4.60;1.05;;;18.60;62.00;;;;;;4998429;28;20029;-62
2022/07/06 06:13:55;;;;;;;5.75;1.20;;;18.80;61.40;;;;;;5013839;28;20112;-62
2022/07/06 06:16:21;;;;;;;3.72;1.05;;;19.00;60.90;;;;;;5014296;28;20026;-62
2022/07/06 06:18:46;;;;;;;3.13;0.90;;;19.10;60.20;;;;;;5014918;28;20355;-62
2022/07/06 06:21:12;;;;;;;4.10;1.30;;;19.20;59.80;;;;;;5031583;28;20403;-62
2022/07/06 06:23:37;;;;;;;3.65;1.10;;;19.30;59.50;;;;;;5015944;28;20030;-62
2022/07/06 06:26:03;;;;;;;4.75;1.00;;;19.30;59.40;;;;;;5015141;28;20105;-62
2022/07/06 06:28:29;;;;;;;4.05;1.23;;;19.40;59.40;;;;;;5026511;28;20050;-63
2022/07/06 06:30:54;;;;;;;4.15;1.20;;;19.50;59.20;;;;;;5010872;28;20116;-61
2022/07/06 06:33:21;;;;;;;3.78;1.00;;;19.60;58.80;;;;;;5015052;28;20060;-62
2022/07/06 06:35:51;;;;;;;2.50;0.80;;;19.80;58.60;;;;;;4997858;28;20030;-62
2022/07/06 06:38:19;;;;;;;3.25;1.10;;;19.80;58.30;;;;;;5027023;28;20409;-65
2022/07/06 06:40:44;;;;;;;2.67;1.00;;;20.00;58.10;;;;;;5000995;28;20025;-63
2022/07/06 06:43:10;;;;;;;3.90;1.20;;;20.10;57.70;;;;;;5013495;28;20060;-63
2022/07/06 06:45:44;;;;;;;2.08;1.00;;;20.20;57.60;;;;;;5024020;28;20040;-62
2022/07/06 06:48:10;;;;;;;4.50;0.93;;;20.20;57.40;;;;;;5029638;28;20052;-63
2022/07/06 06:50:35;;;;;;;5.13;1.05;;;20.30;57.40;;;;;;5013489;28;20355;-62
2022/07/06 06:53:02;;;;;;;4.85;1.00;;;20.40;57.10;;;;;;5013069;28;20038;-63
2022/07/06 06:55:28;;;;;;;4.78;0.80;;;20.50;56.70;;;;;;5030008;28;20030;-62
2022/07/06 06:57:53;;;;;;;2.55;0.93;;;20.60;56.30;;;;;;5014622;28;20030;-63
2022/07/06 07:00:19;;;;;;;2.67;0.82;;;20.60;55.80;;;;;;5012939;28;20057;-63
2022/07/06 07:02:46;;;;;;;3.72;1.08;;;20.70;55.80;;;;;;5014666;28;20026;-63
2022/07/06 07:05:12;;;;;;;3.60;1.15;;;20.80;55.70;;;;;;5016125;28;20182;-62
2022/07/06 07:07:38;;;;;;;4.32;1.20;;;20.90;55.60;;;;;;5013605;28;20018;-63
2022/07/06 07:10:05;;;;;;;3.88;1.13;;;20.90;55.50;;;;;;5014169;28;20129;-63
2022/07/06 07:12:31;;;;;;;2.88;1.00;;;20.90;55.30;;;;;;5018414;28;20021;-63
2022/07/06 07:14:56;;;;;;;4.60;1.52;;;20.90;55.30;;;;;;5014429;28;20408;-63
2022/07/06 07:17:22;;;;;;;3.72;1.10;;;21.00;55.10;;;;;;5020278;28;20029;-63
2022/07/06 07:19:48;;;;;;;4.22;1.33;;;21.10;54.90;;;;;;5001341;28;20109;-63
2022/07/06 07:22:14;;;;;;;3.30;0.77;;;21.30;54.60;;;;;;5025986;28;20033;-63
2022/07/06 07:24:39;;;;;;;5.05;1.02;;;21.40;54.20;;;;;;5010126;28;20022;-63
2022/07/06 07:27:05;;;;;;;4.68;1.00;;;21.60;53.90;;;;;;5007977;28;20099;-63
2022/07/06 07:29:31;;;;;;;2.60;1.00;;;21.80;53.50;;;;;;5009853;28;20021;-63
2022/07/06 07:31:56;;;;;;;4.45;1.60;;;22.00;53.00;;;;;;4996020;28;20120;-63
2022/07/06 07:34:22;;;;;;;2.03;0.95;;;22.10;52.80;;;;;;4984848;28;20052;-64
2022/07/06 07:36:47;;;;;;;7.03;3.38;;;22.30;52.40;;;;;;4991897;28;20025;-63
2022/07/06 07:39:13;;;;;;;12.30;8.02;;;22.40;51.90;;;;;;5007849;28;20092;-63
2022/07/06 07:41:39;;;;;;;13.43;7.38;;;22.60;51.50;;;;;;5009013;28;20033;-63
2022/07/06 07:44:05;;;;;;;9.77;3.72;;;22.70;51.00;;;;;;5005898;28;20026;-63
2022/07/06 07:46:30;;;;;;;9.38;6.18;;;22.80;50.60;;;;;;5009334;28;20026;-64
2022/07/06 07:48:56;;;;;;;10.35;6.43;;;23.00;50.30;;;;;;4993014;28;20072;-63
2022/07/06 07:51:22;;;;;;;9.45;5.35;;;22.90;50.20;;;;;;5027675;28;20034;-64
2022/07/06 07:53:48;;;;;;;5.55;2.60;;;23.00;49.90;;;;;;5014084;28;20030;-63
2022/07/06 07:56:13;;;;;;;4.82;1.77;;;23.10;49.50;;;;;;5012934;28;20032;-63
2022/07/06 07:58:39;;;;;;;5.25;1.40;;;23.30;49.30;;;;;;5019876;28;20452;-64
2022/07/06 08:01:05;;;;;;;3.35;0.90;;;23.50;48.80;;;;;;5012387;28;20092;-63
2022/07/06 08:03:31;;;;;;;2.58;0.70;;;23.30;48.20;;;;;;5020328;28;20413;-65
2022/07/06 08:05:57;;;;;;;2.80;0.70;;;23.20;47.70;;;;;;5022422;28;20034;-64
2022/07/06 08:08:23;;;;;;;3.67;0.90;;;23.20;47.50;;;;;;5012827;28;20030;-64
2022/07/06 08:10:48;;;;;;;3.95;1.02;;;23.40;47.10;;;;;;5012835;28;20069;-64
2022/07/06 08:13:14;;;;;;;2.35;0.60;;;23.50;46.80;;;;;;5020848;28;20022;-64
2022/07/06 08:15:42;;;;;;;4.38;1.05;;;23.20;46.40;;;;;;5012069;28;20030;-64
2022/07/06 08:18:09;;;;;;;2.38;0.63;;;23.00;46.80;;;;;;4996416;28;20350;-63
2022/07/06 08:20:35;;;;;;;3.47;0.88;;;23.00;46.60;;;;;;5012526;28;20474;-64
2022/07/06 08:23:00;;;;;;;1.85;0.55;;;23.00;46.40;;;;;;5012494;28;20117;-64
2022/07/06 08:25:26;;;;;;;2.15;0.80;;;23.10;46.20;;;;;;5012598;28;20025;-64
2022/07/06 08:27:52;;;;;;;4.43;1.05;;;23.20;45.70;;;;;;4994868;28;20045;-64
2022/07/06 08:30:17;;;;;;;3.00;0.55;;;23.30;45.40;;;;;;5011367;28;20407;-64
2022/07/06 08:32:43;;;;;;;1.45;0.40;;;23.40;45.10;;;;;;5018194;28;20033;-64
2022/07/06 08:35:10;;;;;;;1.13;0.55;;;23.60;44.90;;;;;;5011168;28;20030;-63
2022/07/06 08:37:35;;;;;;;1.80;0.60;;;23.60;44.40;;;;;;5011129;28;20030;-64
2022/07/06 08:40:02;;;;;;;1.42;0.60;;;23.70;44.10;;;;;;5012116;28;20049;-64
2022/07/06 08:42:33;;;;;;;1.40;0.68;;;23.80;44.00;;;;;;5013536;28;20059;-64
2022/07/06 08:45:00;;;;;;;2.95;0.60;;;24.00;43.90;;;;;;5011311;28;20404;-63
2022/07/06 08:47:30;;;;;;;3.08;1.30;;;24.00;43.90;;;;;;5010566;28;20029;-65
2022/07/06 08:49:56;;;;;;;6.72;2.67;;;23.90;44.60;;;;;;4997392;28;20084;-64
2022/07/06 08:52:25;;;;;;;5.07;1.70;;;23.80;44.10;;;;;;5017468;28;20038;-61
2022/07/06 08:54:51;;;;;;;3.80;1.30;;;23.70;43.70;;;;;;5017310;28;20030;-62
2022/07/06 08:57:18;;;;;;;2.40;1.10;;;23.40;44.40;;;;;;5015434;28;20029;-64
2022/07/06 08:59:44;;;;;;;1.75;0.70;;;23.10;43.90;;;;;;5011405;28;20407;-64
2022/07/06 09:02:10;;;;;;;1.73;0.70;;;22.70;44.10;;;;;;5018276;28;20034;-64
2022/07/06 09:04:38;;;;;;;2.40;0.70;;;22.50;44.10;;;;;;5017670;28;20034;-61
2022/07/06 09:07:04;;;;;;;4.07;0.80;;;22.50;44.20;;;;;;5018596;28;20061;-61
2022/07/06 09:09:30;;;;;;;2.33;0.63;;;22.80;43.80;;;;;;5017503;28;20042;-64
2022/07/06 09:11:57;;;;;;;1.77;0.55;;;23.10;43.10;;;;;;5018247;28;20113;-62
2022/07/06 09:14:23;;;;;;;4.43;0.90;;;23.40;42.60;;;;;;5029705;28;20479;-62
2022/07/06 09:17:02;;;;;;;1.38;0.45;;;23.50;42.50;;;;;;5018492;28;20065;-62
2022/07/06 09:19:27;;;;;;;2.42;0.70;;;23.50;42.30;;;;;;5018041;28;20030;-62
2022/07/06 09:21:54;;;;;;;2.38;0.95;;;23.30;42.40;;;;;;5018247;28;20033;-62
2022/07/06 09:24:19;;;;;;;3.20;0.70;;;23.10;42.30;;;;;;5017998;28;20136;-62
2022/07/06 09:26:47;;;;;;;0.60;0.45;;;23.00;42.50;;;;;;5018208;28;20113;-62
2022/07/06 09:29:13;;;;;;;1.65;0.60;;;22.90;42.60;;;;;;5017218;28;20443;-62
2022/07/06 09:31:40;;;;;;;2.80;0.73;;;22.80;43.00;;;;;;5030562;28;20068;-62
2022/07/06 09:34:10;;;;;;;1.50;0.80;;;22.60;43.30;;;;;;5003807;28;20565;-61
2022/07/06 09:36:42;;;;;;;1.00;0.45;;;22.40;43.40;;;;;;4999684;28;20030;-63
2022/07/06 09:39:17;;;;;;;2.40;0.60;;;22.30;43.60;;;;;;5017478;28;20026;-61
2022/07/06 09:41:43;;;;;;;3.40;0.80;;;22.30;43.60;;;;;;5017628;28;20030;-62
2022/07/06 09:44:10;;;;;;;6.03;1.48;;;22.50;43.60;;;;;;4999800;28;20121;-62
2022/07/06 09:46:43;;;;;;;1.83;0.80;;;22.90;43.30;;;;;;5016682;28;20025;-62
2022/07/06 09:49:09;;;;;;;2.60;0.80;;;23.30;42.90;;;;;;5031957;28;20026;-62
2022/07/06 09:51:38;;;;;;;3.50;0.75;;;23.50;42.50;;;;;;5017059;28;20029;-62
2022/07/06 09:54:07;;;;;;;1.85;0.57;;;23.70;42.10;;;;;;5017533;28;20034;-62
2022/07/06 09:56:40;;;;;;;1.25;0.45;;;23.80;42.10;;;;;;5015862;28;20305;-62
2022/07/06 09:59:13;;;;;;;4.85;0.65;;;23.90;41.60;;;;;;5003628;28;20040;-62
2022/07/06 10:01:39;;;;;;;1.77;0.65;;;24.00;41.40;;;;;;5006766;28;20073;-63
2022/07/06 10:04:06;;;;;;;1.52;0.50;;;24.00;41.50;;;;;;5017059;28;20044;-62
2022/07/06 10:06:33;;;;;;;1.50;0.50;;;24.00;41.40;;;;;;5017032;28;20114;-62
2022/07/06 10:08:59;;;;;;;1.80;0.50;;;23.90;41.60;;;;;;5015740;28;20109;-62
2022/07/06 10:11:27;;;;;;;1.77;0.52;;;23.90;41.60;;;;;;5033005;28;20330;-62
2022/07/06 10:13:56;;;;;;;4.32;0.50;;;23.90;41.80;;;;;;5029184;28;20061;-62
2022/07/06 10:16:25;;;;;;;2.80;0.82;;;23.80;41.70;;;;;;5015177;28;20030;-62
2022/07/06 10:18:55;;;;;;;1.42;0.50;;;23.80;41.80;;;;;;5021048;28;20121;-62
2022/07/06 10:21:24;;;;;;;3.63;0.73;;;23.70;41.90;;;;;;5015924;28;20463;-62
2022/07/06 10:23:50;;;;;;;1.95;0.50;;;23.70;41.90;;;;;;5016855;28;20026;-62
2022/07/06 10:26:17;;;;;;;1.05;0.40;;;23.70;42.00;;;;;;5016346;28;20087;-62
2022/07/06 10:28:43;;;;;;;1.80;0.60;;;23.80;42.00;;;;;;5016805;28;20455;-62
2022/07/06 10:31:10;;;;;;;1.08;0.45;;;23.70;41.80;;;;;;5014883;28;20033;-63
2022/07/06 10:33:36;;;;;;;2.47;0.52;;;23.70;41.60;;;;;;5015443;28;20447;-63
2022/07/06 10:36:03;;;;;;;1.63;0.70;;;23.80;41.30;;;;;;5015497;28;20041;-63
2022/07/06 10:38:34;;;;;;;1.95;0.43;;;23.80;41.20;;;;;;5015121;28;20030;-63
2022/07/06 10:41:06;;;;;;;1.27;0.60;;;24.00;41.90;;;;;;5015750;28;20082;-63
2022/07/06 10:43:42;;;;;;;2.25;0.75;;;24.20;41.50;;;;;;5017808;28;20049;-62
2022/07/06 10:46:11;;;;;;;1.65;0.50;;;24.30;41.00;;;;;;5014401;28;20060;-63
2022/07/06 10:48:41;;;;;;;2.65;0.93;;;24.40;40.80;;;;;;5016034;28;20510;-63
2022/07/06 10:51:08;;;;;;;1.30;0.55;;;24.50;40.70;;;;;;5015241;28;20034;-63
2022/07/06 10:53:39;;;;;;;1.77;0.55;;;24.70;40.90;;;;;;5015918;28;20033;-63
2022/07/06 10:56:09;;;;;;;1.10;0.40;;;24.80;40.80;;;;;;5014910;28;20451;-63
2022/07/06 10:59:01;;;;;;;0.83;0.43;;;24.80;40.50;;;;;;5015264;28;20025;-63
2022/07/06 11:01:29;;;;;;;2.75;0.43;;;24.60;40.70;;;;;;5013933;28;20288;-64
2022/07/06 11:03:57;;;;;;;2.13;0.70;;;24.40;40.60;;;;;;5014559;28;20034;-63
2022/07/06 11:06:24;;;;;;;1.83;0.60;;;24.10;40.50;;;;;;5014335;28;20034;-63
2022/07/06 11:09:03;;;;;;;1.52;0.60;;;24.10;40.60;;;;;;5014173;28;20026;-63
2022/07/06 11:11:38;;;;;;;3.47;0.82;;;24.20;40.40;;;;;;5014790;28;20034;-63
2022/07/06 11:14:10;;;;;;;2.38;0.82;;;24.50;40.10;;;;;;5022437;28;20037;-63
2022/07/06 11:16:47;;;;;;;1.77;0.60;;;24.50;40.10;;;;;;5014720;28;20034;-64
2022/07/06 11:19:14;;;;;;;4.50;0.60;;;24.50;40.50;;;;;;5014158;28;20390;-62
2022/07/06 11:21:43;;;;;;;3.78;0.90;;;24.30;40.70;;;;;;5014492;28;20057;-63
2022/07/06 11:24:24;;;;;;;1.70;0.70;;;24.20;40.90;;;;;;5030037;28;20176;-63
2022/07/06 11:26:51;;;;;;;3.47;0.80;;;24.10;41.20;;;;;;5015502;28;20083;-63
2022/07/06 11:29:21;;;;;;;1.60;0.60;;;24.30;41.00;;;;;;5014260;28;20042;-64
2022/07/06 11:31:48;;;;;;;2.00;0.77;;;24.70;40.30;;;;;;4997962;28;20038;-64
2022/07/06 11:34:19;;;;;;;2.85;0.80;;;25.00;40.00;;;;;;5014919;28;20034;-63
2022/07/06 11:36:44;;;;;;;1.83;0.73;;;25.00;40.20;;;;;;5013701;28;20026;-62
2022/07/06 11:39:10;;;;;;;1.77;0.60;;;24.80;40.60;;;;;;5023586;28;20028;-63
2022/07/06 11:41:39;;;;;;;2.45;0.75;;;24.60;41.10;;;;;;5015919;28;20482;-63
2022/07/06 11:44:04;;;;;;;2.20;0.80;;;24.70;41.30;;;;;;5014374;28;20026;-63
2022/07/06 11:46:34;;;;;;;2.42;0.80;;;24.90;40.90;;;;;;5013563;28;20022;-62
2022/07/06 11:49:04;;;;;;;2.78;0.80;;;25.00;40.40;;;;;;5013317;28;20030;-64
2022/07/06 11:51:32;;;;;;;2.13;0.63;;;24.80;41.10;;;;;;5013999;28;20036;-62
2022/07/06 11:54:01;;;;;;;1.65;0.60;;;24.60;40.70;;;;;;5014819;28;20467;-63
2022/07/06 11:56:29;;;;;;;4.05;0.90;;;24.50;41.00;;;;;;5013822;28;20497;-63
2022/07/06 11:58:57;;;;;;;2.80;0.60;;;24.30;41.70;;;;;;5013819;28;20030;-62
2022/07/06 12:01:24;;;;;;;4.03;1.00;;;24.20;41.40;;;;;;5013857;28;20022;-64
2022/07/06 12:03:51;;;;;;;4.38;0.90;;;24.30;41.50;;;;;;5027870;28;20037;-63
2022/07/06 12:06:20;;;;;;;1.15;0.63;;;24.40;41.30;;;;;;5013970;28;20026;-63
2022/07/06 12:08:51;;;;;;;2.35;0.80;;;24.30;41.40;;;;;;5029918;28;20033;-62
2022/07/06 12:11:31;;;;;;;4.20;0.77;;;24.20;41.80;;;;;;4995321;28;20129;-62
2022/07/06 12:14:00;;;;;;;4.53;1.30;;;24.20;42.20;;;;;;5020870;28;20029;-61
2022/07/06 12:16:34;;;;;;;3.53;0.93;;;24.30;42.30;;;;;;5012079;28;20390;-66
2022/07/06 12:19:00;;;;;;;4.00;0.98;;;24.50;42.00;;;;;;5011785;28;20025;-62
2022/07/06 12:21:27;;;;;;;2.55;0.70;;;24.60;42.00;;;;;;5014469;28;20033;-62
2022/07/06 12:23:54;;;;;;;2.33;0.73;;;24.70;41.90;;;;;;5006576;28;20026;-62
2022/07/06 12:26:25;;;;;;;2.38;0.80;;;24.70;41.90;;;;;;5028540;28;20025;-62
2022/07/06 12:29:12;;;;;;;3.05;0.90;;;24.70;41.90;;;;;;5011484;28;20455;-62
2022/07/06 12:31:41;;;;;;;2.17;0.70;;;24.80;41.60;;;;;;5009734;28;20040;-62
2022/07/06 12:34:17;;;;;;;2.97;1.10;;;24.80;41.80;;;;;;5006870;28;20037;-62
2022/07/06 12:36:45;;;;;;;1.23;0.60;;;24.80;41.60;;;;;;5009451;28;20058;-62
2022/07/06 12:39:13;;;;;;;4.85;0.95;;;24.80;41.50;;;;;;5010476;28;20439;-62
2022/07/06 12:42:04;;;;;;;3.25;0.90;;;24.90;41.40;;;;;;5006869;28;20026;-62
2022/07/06 12:44:31;;;;;;;2.75;0.80;;;25.00;41.30;;;;;;5012434;28;20018;-71
2022/07/06 12:47:08;;;;;;;3.17;1.02;;;25.10;41.30;;;;;;5009649;28;20037;-71
2022/07/06 12:49:35;;;;;;;2.28;0.75;;;25.10;41.40;;;;;;5012932;28;20045;-70